Time;durP1;ratioP1;P1;durP2;ratioP2;P2;SDS_P1;SDS_P2;PMS_P1;PMS_P2;Temp;Humidity;BMP_temperature;BMP_pressure;BME280_temperature;BME280_humidity;BME280_pressure;Samples;Min_cycle;Max_cycle;Signal;HPM_P1;HPM_P2
2021/12/29 00:02:06;;;;;;;;;7.33;5.33;;;;;11.80;65.92;100152.06;5047873;28;45324;-58
2021/12/29 00:04:32;;;;;;;;;8.67;2.00;;;;;11.86;65.95;100160.63;5045797;28;45656;-59
2021/12/29 00:06:58;;;;;;;;;7.33;2.67;;;;;11.82;65.88;100168.78;5047496;28;45423;-56
2021/12/29 00:09:25;;;;;;;;;7.67;3.33;;;;;11.81;65.71;100172.41;5045813;28;45557;-54
2021/12/29 00:11:52;;;;;;;;;3.33;1.33;;;;;11.82;65.91;100190.09;5047515;28;45856;-63
2021/12/29 00:14:17;;;;;;;;;4.33;2.00;;;;;11.81;66.03;100187.56;5047722;28;45488;-56
2021/12/29 00:16:44;;;;;;;;;5.67;3.33;;;;;11.86;66.09;100179.25;5030525;28;48247;-55
2021/12/29 00:19:10;;;;;;;;;6.00;2.00;;;;;11.87;66.07;100202.28;5046359;28;45788;-53
2021/12/29 00:21:37;;;;;;;;;3.33;3.33;;;;;11.88;65.84;100198.66;5029571;28;45512;-56
2021/12/29 00:24:06;;;;;;;;;7.33;3.33;;;;;11.87;65.75;100218.28;5046595;28;45427;-60
2021/12/29 00:26:36;;;;;;;;;10.67;5.33;;;;;11.87;65.80;100218.28;5047517;28;45534;-60
2021/12/29 00:29:02;;;;;;;;;11.00;3.67;;;;;11.82;65.84;100226.56;5047717;28;45497;-61
2021/12/29 00:31:32;;;;;;;;;2.00;2.00;;;;;11.81;65.53;100225.69;5047994;28;45458;-60
2021/12/29 00:33:59;;;;;;;;;4.00;4.00;;;;;11.82;66.01;100239.88;5045628;28;45521;-62
2021/12/29 00:36:25;;;;;;;;;5.33;4.00;;;;;11.77;66.08;100233.97;5047173;28;45435;-58
2021/12/29 00:38:52;;;;;;;;;7.00;2.67;;;;;11.77;66.06;100248.16;5051898;28;45474;-62
2021/12/29 00:41:19;;;;;;;;;3.00;2.33;;;;;11.74;66.32;100235.03;5054983;28;45478;-59
2021/12/29 00:43:45;;;;;;;;;6.00;2.00;;;;;11.73;66.32;100249.31;5055008;28;45624;-57
2021/12/29 00:46:13;;;;;;;;;4.00;2.00;;;;;11.71;66.54;100251.22;5031829;28;45491;-56
2021/12/29 00:48:42;;;;;;;;;8.00;5.33;;;;;11.70;66.06;100248.66;5053877;28;45399;-60
2021/12/29 00:51:11;;;;;;;;;6.00;3.33;;;;;11.72;66.67;100252.94;5054767;28;45252;-57
2021/12/29 00:53:38;;;;;;;;;7.00;4.67;;;;;11.73;66.62;100246.66;5054708;28;45387;-60
2021/12/29 00:56:05;;;;;;;;;8.33;3.67;;;;;11.72;66.82;100255.63;5036798;28;45465;-57
2021/12/29 00:58:32;;;;;;;;;7.67;2.00;;;;;11.73;66.93;100241.34;5036664;28;45374;-60
2021/12/29 01:00:59;;;;;;;;;11.67;4.00;;;;;11.63;67.33;100245.56;5054638;28;45404;-59
2021/12/29 01:03:26;;;;;;;;;11.33;7.67;;;;;11.63;67.39;100242.88;5055001;28;45384;-60
2021/12/29 01:05:53;;;;;;;;;6.00;3.67;;;;;11.68;67.62;100251.41;5054632;28;45455;-59
2021/12/29 01:08:19;;;;;;;;;4.67;3.00;;;;;11.70;67.45;100248.66;5054745;28;45467;-60
2021/12/29 01:10:45;;;;;;;;;9.33;6.00;;;;;11.69;67.87;100247.78;5055102;28;45441;-58
2021/12/29 01:13:14;;;;;;;;;3.00;3.00;;;;;11.70;67.88;100246.84;5054843;28;45626;-56
2021/12/29 01:16:09;;;;;;;;;4.00;4.00;;;;;11.72;67.58;100258.28;5039461;28;45626;-59
2021/12/29 01:18:38;;;;;;;;;5.33;5.00;;;;;11.70;67.97;100254.81;5058007;28;45565;-60
2021/12/29 01:21:06;;;;;;;;;7.67;3.33;;;;;11.64;67.97;100249.91;5057797;28;45394;-60
2021/12/29 01:23:32;;;;;;;;;5.33;3.00;;;;;11.69;67.71;100266.44;5058315;28;45333;-59
2021/12/29 01:25:57;;;;;;;;;13.33;7.00;;;;;11.61;68.23;100266.13;5039484;28;46428;-58
2021/12/29 01:28:23;;;;;;;;;9.67;4.00;;;;;11.65;68.48;100266.75;5057917;28;45481;-58
2021/12/29 01:30:48;;;;;;;;;3.00;3.00;;;;;11.69;68.45;100268.25;5058494;28;45468;-61
2021/12/29 01:33:14;;;;;;;;;7.00;5.33;;;;;11.66;68.45;100253.34;5058966;28;45421;-61
2021/12/29 01:35:40;;;;;;;;;7.67;5.33;;;;;11.61;68.28;100247.47;5058546;28;45522;-59
2021/12/29 01:38:07;;;;;;;;;7.67;4.00;;;;;11.63;68.69;100263.34;5040457;28;45711;-61
2021/12/29 01:40:35;;;;;;;;;11.33;3.33;;;;;11.65;68.60;100264.09;5040464;28;45430;-57
2021/12/29 01:43:06;;;;;;;;;10.67;5.33;;;;;11.58;68.89;100250.31;5058121;28;45566;-58
2021/12/29 01:45:32;;;;;;;;;6.67;3.00;;;;;11.62;68.83;100257.16;5039818;28;47627;-58
2021/12/29 01:47:59;;;;;;;;;19.00;6.67;;;;;11.65;69.24;100259.63;5040128;28;45786;-60
2021/12/29 01:50:25;;;;;;;;;12.00;8.33;;;;;11.59;68.98;100253.81;5040103;28;45291;-60
2021/12/29 01:52:55;;;;;;;;;8.00;6.00;;;;;11.64;69.10;100271.22;5058589;28;45553;-57
2021/12/29 01:55:25;;;;;;;;;9.33;6.00;;;;;11.65;69.36;100267.59;5058144;28;46345;-59
2021/12/29 01:57:51;;;;;;;;;7.00;6.00;;;;;11.60;69.18;100259.06;5058080;28;45329;-59
2021/12/29 02:00:21;;;;;;;;;8.00;4.00;;;;;11.65;68.92;100272.94;5056175;28;45389;-59
2021/12/29 02:02:47;;;;;;;;;11.00;8.00;;;;;11.63;69.20;100277.50;5040718;28;45260;-58
2021/12/29 02:05:13;;;;;;;;;5.33;5.33;;;;;11.60;69.26;100284.84;5039864;28;47851;-60
2021/12/29 02:07:40;;;;;;;;;11.00;4.00;;;;;11.59;69.41;100281.34;5048551;28;45447;-61
2021/12/29 02:10:07;;;;;;;;;7.00;6.00;;;;;11.63;69.74;100288.16;5051201;28;45233;-62
2021/12/29 02:12:33;;;;;;;;;4.00;4.00;;;;;11.62;69.11;100283.81;5058119;28;45216;-60
2021/12/29 02:14:58;;;;;;;;;9.33;3.67;;;;;11.63;69.65;100280.19;5057658;28;45300;-61
2021/12/29 02:17:24;;;;;;;;;4.67;3.67;;;;;11.64;69.68;100278.38;5057989;28;45466;-60
2021/12/29 02:19:51;;;;;;;;;6.67;3.00;;;;;11.63;69.50;100269.53;5057946;28;45381;-59
2021/12/29 02:25:18;;;;;;;;;7.67;5.67;;;;;11.68;69.15;100283.38;5057192;28;45446;-61
2021/12/29 02:27:54;;;;;;;;;7.00;3.00;;;;;11.71;69.65;100277.84;5057550;28;45398;-58
2021/12/29 02:30:23;;;;;;;;;7.33;3.33;;;;;11.72;69.21;100279.59;5058011;28;45366;-60
2021/12/29 02:32:57;;;;;;;;;8.67;6.00;;;;;11.73;69.91;100283.97;5057909;28;45473;-60
2021/12/29 02:35:24;;;;;;;;;7.33;6.00;;;;;11.77;69.60;100290.78;5057496;28;45392;-61
2021/12/29 02:37:49;;;;;;;;;9.33;3.33;;;;;11.75;69.77;100284.69;5057058;28;45526;-59
2021/12/29 02:40:15;;;;;;;;;6.67;3.00;;;;;11.81;69.57;100289.66;5057894;28;45374;-60
2021/12/29 02:42:43;;;;;;;;;11.00;5.33;;;;;11.79;69.67;100291.56;5039624;28;45593;-59
2021/12/29 02:45:12;;;;;;;;;4.67;4.00;;;;;11.78;69.31;100284.50;5057236;28;45450;-58
2021/12/29 02:47:38;;;;;;;;;4.67;4.00;;;;;11.82;69.65;100282.50;5057289;28;45456;-58
2021/12/29 02:50:04;;;;;;;;;10.00;3.67;;;;;11.81;69.71;100284.31;5057338;28;45398;-58
2021/12/29 02:52:29;;;;;;;;;16.33;6.00;;;;;11.81;69.14;100273.66;5056824;28;45368;-59
2021/12/29 02:54:54;;;;;;;;;7.67;3.33;;;;;11.84;69.68;100282.41;5056990;28;46047;-61
2021/12/29 02:57:20;;;;;;;;;9.00;3.33;;;;;11.87;69.26;100284.88;5039520;28;45305;-58
2021/12/29 02:59:46;;;;;;;;;5.33;3.00;;;;;11.85;69.21;100273.44;5057505;28;45750;-60
2021/12/29 03:02:12;;;;;;;;;7.00;4.00;;;;;11.91;69.22;100286.38;5039455;28;45395;-64
2021/12/29 03:04:38;;;;;;;;;2.67;1.00;;;;;11.92;69.36;100282.75;5056610;28;46071;-59
2021/12/29 03:07:04;;;;;;;;;6.00;6.00;;;;;11.89;68.77;100286.50;5057162;28;45905;-59
2021/12/29 03:09:30;;;;;;;;;3.67;3.00;;;;;11.92;68.94;100280.09;5056415;28;45575;-61
2021/12/29 03:11:55;;;;;;;;;3.33;1.67;;;;;11.92;68.69;100280.09;5057087;28;45592;-59
2021/12/29 03:14:21;;;;;;;;;5.67;3.00;;;;;11.94;68.85;100286.16;5022657;28;48325;-60
2021/12/29 03:16:47;;;;;;;;;8.67;3.33;;;;;11.95;68.87;100282.56;5038915;28;45401;-58
2021/12/29 03:19:13;;;;;;;;;7.00;2.67;;;;;11.87;68.89;100255.56;5057351;28;45458;-56
2021/12/29 03:21:38;;;;;;;;;3.33;3.00;;;;;12.00;68.99;100277.78;5039230;28;45268;-60
2021/12/29 03:24:06;;;;;;;;;12.67;5.33;;;;;12.02;69.06;100270.53;5055993;28;47653;-60
2021/12/29 03:26:32;;;;;;;;;6.67;3.00;;;;;12.04;68.95;100273.94;5057034;28;45339;-60
2021/12/29 03:28:57;;;;;;;;;8.33;3.00;;;;;12.02;69.63;100265.22;5056889;28;45193;-59
2021/12/29 03:31:25;;;;;;;;;8.00;2.00;;;;;12.01;69.43;100285.69;5057264;28;45697;-57
2021/12/29 03:33:51;;;;;;;;;6.00;3.00;;;;;12.01;69.96;100276.81;5056907;28;45514;-61
2021/12/29 03:36:18;;;;;;;;;7.33;3.00;;;;;12.01;70.12;100283.00;5056102;28;45343;-59
2021/12/29 03:38:45;;;;;;;;;3.00;3.00;;;;;11.98;69.87;100280.56;5055518;28;45359;-59
2021/12/29 03:41:13;;;;;;;;;2.00;0.67;;;;;11.95;70.25;100274.56;5056822;28;45435;-58
2021/12/29 03:43:40;;;;;;;;;5.33;1.67;;;;;12.00;69.99;100272.47;5056555;28;45803;-57
2021/12/29 03:46:07;;;;;;;;;8.33;3.00;;;;;11.98;70.36;100274.34;5038364;28;45455;-59
2021/12/29 03:48:34;;;;;;;;;6.00;3.33;;;;;11.93;70.59;100277.31;5056521;28;45960;-59
2021/12/29 03:51:01;;;;;;;;;6.67;2.67;;;;;11.93;70.61;100279.13;5021901;28;45344;-60
2021/12/29 03:53:26;;;;;;;;;3.67;3.67;;;;;11.91;70.39;100284.56;5055982;28;46238;-61
2021/12/29 03:55:53;;;;;;;;;1.50;1.50;;;;;11.88;70.78;100267.94;5055604;28;45213;-61
2021/12/29 03:58:21;;;;;;;;;4.00;1.67;;;;;11.92;70.73;100261.44;5021828;28;45484;-61
2021/12/29 04:00:49;;;;;;;;;3.33;2.67;;;;;11.95;70.69;100263.91;5056437;28;45550;-61
2021/12/29 04:03:14;;;;;;;;;5.33;2.00;;;;;11.95;70.47;100263.91;5055725;28;47509;-60
2021/12/29 04:05:41;;;;;;;;;1.00;0.00;;;;;11.95;70.53;100258.56;5056183;28;45233;-58
2021/12/29 04:08:07;;;;;;;;;1.00;1.00;;;;;11.96;70.39;100263.78;5056285;28;45319;-59
2021/12/29 04:10:33;;;;;;;;;3.33;2.67;;;;;11.96;70.08;100260.28;5055389;28;45517;-58
2021/12/29 04:12:59;;;;;;;;;4.00;3.00;;;;;11.95;70.48;100266.56;5056027;28;45253;-61
2021/12/29 04:15:25;;;;;;;;;6.00;3.67;;;;;11.91;70.39;100254.41;5056573;28;45485;-60
2021/12/29 04:17:57;;;;;;;;;3.67;1.00;;;;;11.95;70.83;100269.22;5056294;28;45339;-62
2021/12/29 04:23:12;;;;;;;;;2.67;1.33;;;;;11.93;70.89;100260.47;5055757;28;45745;-59
2021/12/29 04:25:38;;;;;;;;;2.33;2.33;;;;;11.89;70.98;100259.84;5055233;28;45762;-59
2021/12/29 04:28:09;;;;;;;;;9.00;2.00;;;;;11.88;72.07;100267.94;5055317;28;45485;-58
2021/12/29 04:30:35;;;;;;;;;8.67;2.00;;;;;11.87;71.80;100272.41;5056382;28;45518;-59
2021/12/29 04:33:01;;;;;;;;;4.00;1.33;;;;;11.78;72.04;100265.84;5055309;28;46499;-59
2021/12/29 04:35:26;;;;;;;;;1.00;1.00;;;;;11.78;72.57;100267.66;5037744;28;45784;-57
2021/12/29 04:37:53;;;;;;;;;3.00;3.00;;;;;11.74;72.17;100261.69;5038059;28;45324;-59
2021/12/29 04:40:19;;;;;;;;;3.00;2.00;;;;;11.72;72.70;100268.94;5055906;28;45410;-58
2021/12/29 04:42:44;;;;;;;;;1.00;1.00;;;;;11.67;72.84;100268.34;5053755;28;45387;-59
2021/12/29 04:45:11;;;;;;;;;3.00;2.00;;;;;11.59;73.12;100260.03;5055706;28;45382;-60
2021/12/29 04:47:39;;;;;;;;;3.00;2.00;;;;;11.54;73.86;100259.47;5037575;28;45275;-57
2021/12/29 04:50:08;;;;;;;;;0.67;0.67;;;;;11.56;74.42;100265.53;5057909;28;45455;-59
2021/12/29 04:52:33;;;;;;;;;2.00;1.00;;;;;11.50;74.70;100249.97;5058886;28;46324;-62
2021/12/29 04:54:59;;;;;;;;;1.00;1.00;;;;;11.48;74.99;100254.56;5058732;28;45426;-60
2021/12/29 04:57:26;;;;;;;;;3.00;1.67;;;;;11.48;74.91;100254.56;5040453;28;45713;-60
2021/12/29 04:59:51;;;;;;;;;3.00;1.33;;;;;11.46;74.70;100237.81;5059210;28;45242;-59
2021/12/29 05:02:17;;;;;;;;;3.00;2.00;;;;;11.49;75.18;100240.28;5040813;28;47083;-59
2021/12/29 05:04:48;;;;;;;;;1.33;1.00;;;;;11.49;75.02;100243.78;5058971;28;45205;-60
2021/12/29 05:09:59;;;;;;;;;2.00;1.00;;;;;11.50;75.08;100242.84;5059437;28;45280;-59
2021/12/29 05:12:25;;;;;;;;;4.00;3.00;;;;;11.48;75.61;100244.75;5058261;28;46086;-61
2021/12/29 05:14:51;;;;;;;;;1.33;0.67;;;;;11.47;75.44;100237.72;5040399;28;45410;-58
2021/12/29 05:17:16;;;;;;;;;2.33;1.00;;;;;11.50;75.15;100236.66;5041376;28;45242;-60
2021/12/29 05:19:42;;;;;;;;;2.67;0.00;;;;;11.45;76.03;100225.44;5059102;28;45584;-64
2021/12/29 05:22:07;;;;;;;;;1.00;1.00;;;;;11.43;75.75;100224.69;5058806;28;45322;-61
2021/12/29 05:24:33;;;;;;;;;2.00;0.67;;;;;11.47;76.32;100226.22;5058506;28;45337;-59
2021/12/29 05:26:59;;;;;;;;;2.33;1.00;;;;;11.42;76.38;100233.63;5058496;28;45304;-58
2021/12/29 05:29:26;;;;;;;;;1.00;1.00;;;;;11.43;76.67;100227.34;5058598;28;45479;-59
2021/12/29 05:31:51;;;;;;;;;2.00;2.00;;;;;11.43;76.69;100227.34;5058487;28;46190;-62
2021/12/29 05:34:17;;;;;;;;;0.67;0.67;;;;;11.40;77.21;100219.56;5058264;28;45442;-58
2021/12/29 05:36:43;;;;;;;;;2.00;2.00;;;;;11.40;77.23;100206.25;5058679;28;45466;-62
2021/12/29 05:39:08;;;;;;;;;2.00;2.00;;;;;11.45;77.60;100214.78;5058812;28;45425;-59
2021/12/29 05:41:34;;;;;;;;;0.00;0.00;;;;;11.47;77.29;100213.75;5057302;28;46069;-59
2021/12/29 05:44:00;;;;;;;;;0.67;0.00;;;;;11.47;77.89;100212.91;5057649;28;45448;-58
2021/12/29 05:46:26;;;;;;;;;4.00;1.00;;;;;11.48;77.67;100219.94;5040449;28;45345;-60
2021/12/29 05:48:51;;;;;;;;;2.67;2.00;;;;;11.48;77.67;100212.78;5058616;28;45241;-58
2021/12/29 05:51:16;;;;;;;;;2.00;2.00;;;;;11.44;78.26;100210.41;5058252;28;45459;-61
2021/12/29 05:53:42;;;;;;;;;2.67;2.00;;;;;11.44;78.03;100213.94;5058154;28;45415;-61
2021/12/29 05:56:08;;;;;;;;;3.00;3.00;;;;;11.40;78.48;100203.59;5040601;28;45272;-59
2021/12/29 05:58:35;;;;;;;;;5.67;3.00;;;;;11.38;78.93;100203.69;5057409;28;45576;-59
2021/12/29 06:01:01;;;;;;;;;3.33;3.33;;;;;11.38;79.86;100203.69;5057660;28;45562;-60
2021/12/29 06:03:26;;;;;;;;;4.00;2.33;;;;;11.37;79.02;100207.31;5040237;28;45487;-61
2021/12/29 06:05:52;;;;;;;;;3.00;3.00;;;;;11.28;79.10;100189.28;5058231;28;45839;-61
2021/12/29 06:08:17;;;;;;;;;3.00;2.00;;;;;11.35;79.72;100203.91;5058744;28;45351;-62
2021/12/29 06:10:43;;;;;;;;;4.00;4.00;;;;;11.30;79.97;100194.50;5039221;28;46813;-62
2021/12/29 06:13:08;;;;;;;;;2.67;2.67;;;;;11.29;80.16;100193.63;5057800;28;45422;-61
2021/12/29 06:15:34;;;;;;;;;6.00;2.00;;;;;11.25;79.66;100191.28;5057058;28;45380;-60
2021/12/29 06:17:59;;;;;;;;;2.00;1.00;;;;;11.29;80.02;100195.44;5058345;28;45284;-60
2021/12/29 06:20:25;;;;;;;;;6.00;3.00;;;;;11.31;80.57;100196.19;5057581;28;45437;-63
2021/12/29 06:22:50;;;;;;;;;3.00;3.00;;;;;11.28;79.91;100197.25;5039890;28;46062;-61
2021/12/29 06:25:17;;;;;;;;;5.33;3.00;;;;;11.31;80.23;100198.84;5057801;28;45348;-61
2021/12/29 06:27:44;;;;;;;;;3.00;3.00;;;;;11.30;80.37;100202.47;5057905;28;45476;-60
2021/12/29 06:30:12;;;;;;;;;5.67;3.33;;;;;11.29;81.17;100201.63;5038671;28;47418;-62
2021/12/29 06:32:39;;;;;;;;;12.25;12.00;;;;;11.28;81.28;100205.25;5057286;28;45479;-60
2021/12/29 06:35:06;;;;;;;;;3.67;3.67;;;;;11.29;81.59;100201.63;5039449;28;45332;-62
2021/12/29 06:37:32;;;;;;;;;3.67;3.67;;;;;11.28;81.50;100197.25;5058052;28;45158;-63
2021/12/29 06:39:58;;;;;;;;;6.00;4.00;;;;;11.29;81.47;100206.09;5057631;28;45413;-60
2021/12/29 06:42:24;;;;;;;;;6.33;4.00;;;;;11.18;81.49;100189.00;5056463;28;45256;-60
2021/12/29 06:44:51;;;;;;;;;3.00;3.00;;;;;11.27;80.83;100195.56;5056920;28;45375;-59
2021/12/29 06:47:17;;;;;;;;;7.33;6.00;;;;;14.19;82.12;100186.25;5057214;28;45588;-59
2021/12/29 06:49:42;;;;;;;;;6.00;6.00;;;;;13.21;81.48;100192.81;5057138;28;45459;-60
2021/12/29 06:52:09;;;;;;;;;6.00;4.00;;;;;11.88;83.63;100193.34;5057203;28;45280;-60
2021/12/29 06:54:35;;;;;;;;;7.00;4.33;;;;;12.17;80.77;100191.34;5057432;28;45320;-59
2021/12/29 06:57:02;;;;;;;;;3.67;3.67;;;;;11.47;81.40;100199.59;5057871;28;45469;-59
2021/12/29 06:59:27;;;;;;;;;7.00;6.67;;;;;11.33;81.37;100191.63;5056869;28;45564;-60
2021/12/29 07:01:53;;;;;;;;;7.33;6.33;;;;;11.28;81.87;100189.28;5038155;28;45321;-59
2021/12/29 07:04:18;;;;;;;;;8.00;4.00;;;;;11.27;81.60;100197.38;5038997;28;45371;-59
2021/12/29 07:06:44;;;;;;;;;7.33;6.00;;;;;11.32;81.86;100205.88;5039502;28;45715;-60
2021/12/29 07:09:10;;;;;;;;;6.00;6.00;;;;;11.30;81.95;100191.84;5056714;28;45893;-61
2021/12/29 07:11:37;;;;;;;;;6.33;6.33;;;;;11.24;82.04;100185.13;5055560;28;45478;-60
2021/12/29 07:14:05;;;;;;;;;10.00;7.00;;;;;11.22;82.41;100184.38;5057368;28;45520;-61
2021/12/29 07:16:31;;;;;;;;;8.67;7.00;;;;;11.30;82.20;100198.00;5056606;28;45232;-60
2021/12/29 07:18:57;;;;;;;;;6.00;6.00;;;;;11.34;82.15;100198.69;5056508;28;46219;-61
2021/12/29 07:21:22;;;;;;;;;5.33;5.33;;;;;11.27;83.09;100203.53;5056595;28;45271;-61
2021/12/29 07:23:49;;;;;;;;;8.33;6.33;;;;;11.23;83.12;100202.91;5056802;28;45426;-59
2021/12/29 07:26:15;;;;;;;;;9.33;4.67;;;;;11.23;83.15;100197.56;5056976;28;45527;-60
2021/12/29 07:28:40;;;;;;;;;10.33;6.67;;;;;11.20;83.58;100197.78;5056512;28;46015;-60
2021/12/29 07:31:06;;;;;;;;;11.00;8.67;;;;;11.23;84.25;100202.91;5056434;28;45475;-59
2021/12/29 07:33:33;;;;;;;;;6.67;6.67;;;;;11.25;84.28;100209.91;5056001;28;45475;-58
2021/12/29 07:35:59;;;;;;;;;11.33;7.33;;;;;11.20;84.39;100189.78;5056914;28;45561;-60
2021/12/29 07:38:24;;;;;;;;;7.00;6.00;;;;;11.22;84.39;100192.34;5056557;28;45500;-60
2021/12/29 07:40:49;;;;;;;;;7.00;6.67;;;;;11.24;84.90;100198.44;5053387;28;45454;-59
2021/12/29 07:43:15;;;;;;;;;6.33;6.33;;;;;11.27;84.19;100200.03;5045400;28;45454;-61
2021/12/29 07:45:42;;;;;;;;;7.00;7.00;;;;;11.30;84.20;100207.81;5028213;28;45356;-58
2021/12/29 07:48:09;;;;;;;;;4.00;4.00;;;;;11.29;83.69;100206.09;5046152;28;46239;-58
2021/12/29 07:50:35;;;;;;;;;7.67;6.00;;;;;11.28;84.13;100207.06;5046272;28;45296;-60
2021/12/29 07:53:01;;;;;;;;;4.00;4.00;;;;;11.31;83.51;100214.84;5045067;28;45292;-61
2021/12/29 07:55:27;;;;;;;;;4.67;4.00;;;;;11.37;83.52;100222.44;5045329;28;45395;-59
2021/12/29 07:57:53;;;;;;;;;6.67;3.67;;;;;11.33;83.15;100211.16;5047695;28;46173;-61
2021/12/29 08:00:18;;;;;;;;;5.33;5.33;;;;;11.40;83.63;100214.25;5044577;28;45398;-58
2021/12/29 08:02:44;;;;;;;;;6.00;4.00;;;;;11.42;83.54;100213.19;5046867;28;45510;-60
2021/12/29 08:05:11;;;;;;;;;4.00;4.00;;;;;11.43;83.82;100227.34;5044867;28;45874;-58
2021/12/29 08:07:37;;;;;;;;;4.00;4.00;;;;;11.38;83.88;100216.16;5053019;28;47475;-60
2021/12/29 08:10:04;;;;;;;;;5.33;5.33;;;;;11.46;83.95;100227.16;5056226;28;45190;-59
2021/12/29 08:12:30;;;;;;;;;6.00;6.00;;;;;11.47;83.75;100231.53;5037876;28;45308;-58
2021/12/29 08:14:55;;;;;;;;;5.67;5.33;;;;;11.44;84.34;100231.72;5055993;28;45422;-60
2021/12/29 08:17:21;;;;;;;;;7.67;5.67;;;;;11.47;83.41;100226.22;5055727;28;45548;-62
2021/12/29 08:19:46;;;;;;;;;6.00;4.00;;;;;11.53;83.27;100242.63;5052647;28;45463;-59
2021/12/29 08:22:12;;;;;;;;;5.00;3.33;;;;;11.58;83.69;100249.47;5046075;28;45767;-61
2021/12/29 08:24:38;;;;;;;;;7.00;6.00;;;;;11.59;83.40;100246.72;5044381;28;45529;-59
2021/12/29 08:27:04;;;;;;;;;8.00;8.00;;;;;11.55;83.22;100236.34;5027860;28;46739;-60
2021/12/29 08:29:30;;;;;;;;;5.33;5.33;;;;;11.64;83.63;100254.41;5045421;28;45339;-60
2021/12/29 08:31:57;;;;;;;;;11.00;7.00;;;;;11.66;83.53;100249.81;5025836;28;45285;-61
2021/12/29 08:34:24;;;;;;;;;6.00;6.00;;;;;11.67;83.33;100256.84;5046302;28;45601;-60
2021/12/29 08:36:50;;;;;;;;;7.00;7.00;;;;;11.68;83.62;100256.75;5031317;28;46251;-59
2021/12/29 08:39:18;;;;;;;;;6.33;6.33;;;;;11.70;83.42;100249.50;5055568;28;45351;-60
2021/12/29 08:41:48;;;;;;;;;4.00;4.00;;;;;11.68;83.32;100243.44;5055648;28;45378;-57
2021/12/29 08:44:14;;;;;;;;;6.00;6.00;;;;;11.69;83.97;100250.47;5043917;28;45467;-59
2021/12/29 08:46:40;;;;;;;;;8.33;7.00;;;;;11.74;83.48;100250.19;5045345;28;45996;-60
2021/12/29 08:49:07;;;;;;;;;7.00;5.33;;;;;11.72;83.79;100236.09;5027401;28;45663;-61
2021/12/29 08:51:34;;;;;;;;;9.00;8.00;;;;;11.74;83.73;100248.38;5028615;28;45466;-60
2021/12/29 08:54:00;;;;;;;;;8.00;7.67;;;;;11.77;83.78;100240.16;5044382;28;45542;-61
2021/12/29 08:56:26;;;;;;;;;6.00;6.00;;;;;11.77;83.46;100244.63;5044310;28;45345;-62
2021/12/29 08:58:53;;;;;;;;;6.67;3.67;;;;;11.80;83.63;100250.63;5045522;28;45251;-60
2021/12/29 09:01:19;;;;;;;;;7.00;7.00;;;;;11.80;83.43;100250.63;5043882;28;45389;-59
2021/12/29 09:03:45;;;;;;;;;8.67;7.00;;;;;11.87;84.02;100252.91;5026720;28;45597;-63
2021/12/29 09:06:11;;;;;;;;;7.67;4.00;;;;;11.89;83.73;100253.66;5028586;28;46222;-60
2021/12/29 09:08:37;;;;;;;;;7.67;6.00;;;;;11.89;84.00;100243.00;5043668;28;45375;-66
2021/12/29 09:11:03;;;;;;;;;5.33;5.33;;;;;11.89;84.10;100238.53;5044827;28;45289;-62
2021/12/29 09:13:28;;;;;;;;;8.33;7.33;;;;;11.97;84.03;100236.19;5047754;28;45669;-61
2021/12/29 09:15:56;;;;;;;;;4.67;3.67;;;;;12.00;83.93;100225.34;5045858;28;45529;-61
2021/12/29 09:18:27;;;;;;;;;7.33;7.00;;;;;11.97;83.82;100222.84;5055067;28;45414;-60
2021/12/29 09:20:53;;;;;;;;;5.33;5.33;;;;;12.10;83.83;100225.53;5054373;28;45356;-62
2021/12/29 09:23:19;;;;;;;;;8.00;6.33;;;;;12.14;84.01;100224.41;5045640;28;45767;-61
2021/12/29 09:25:46;;;;;;;;;7.00;7.00;;;;;12.20;84.49;100233.78;5039894;28;46182;-62
2021/12/29 09:28:16;;;;;;;;;7.00;7.00;;;;;12.16;84.07;100235.81;5034995;28;45264;-59
2021/12/29 09:30:46;;;;;;;;;4.67;3.00;;;;;12.25;84.76;100250.31;5017144;28;45328;-58
2021/12/29 09:33:14;;;;;;;;;8.00;7.00;;;;;12.24;84.59;100230.81;5042514;28;45822;-58
2021/12/29 09:35:41;;;;;;;;;7.33;6.33;;;;;12.35;84.57;100238.03;5045689;28;45812;-56
2021/12/29 09:38:09;;;;;;;;;7.67;7.67;;;;;12.37;84.87;100233.50;5034058;28;45403;-56
2021/12/29 09:40:37;;;;;;;;;6.67;6.67;;;;;12.41;84.57;100234.97;5036899;28;45477;-61
2021/12/29 09:43:06;;;;;;;;;6.67;6.67;;;;;12.50;84.56;100233.47;5058313;28;45566;-64
2021/12/29 09:45:33;;;;;;;;;7.00;4.00;;;;;12.55;84.92;100236.69;5039310;28;47995;-56
2021/12/29 09:47:59;;;;;;;;;3.00;2.00;;;;;12.56;84.71;100233.91;5058100;28;45362;-59
2021/12/29 09:50:26;;;;;;;;;4.00;4.00;;;;;12.55;85.23;100226.00;5057215;28;45513;-61
2021/12/29 09:52:58;;;;;;;;;9.00;5.67;;;;;12.63;84.68;100234.31;5057312;28;45600;-58
2021/12/29 09:55:24;;;;;;;;;6.33;6.00;;;;;12.66;84.62;100226.13;5056942;28;46236;-64
2021/12/29 09:57:53;;;;;;;;;4.00;4.00;;;;;12.75;84.82;100230.78;5056812;28;45361;-61
2021/12/29 10:00:27;;;;;;;;;7.00;7.00;;;;;12.81;84.96;100237.50;5057006;28;45415;-60
2021/12/29 10:03:01;;;;;;;;;6.00;6.00;;;;;12.86;84.99;100238.88;5054304;28;45395;-59
2021/12/29 10:05:28;;;;;;;;;4.33;3.00;;;;;12.90;84.76;100229.72;5030358;28;45535;-63
2021/12/29 10:08:01;;;;;;;;;6.67;4.33;;;;;12.92;85.00;100230.44;5038975;28;45304;-58
2021/12/29 10:10:28;;;;;;;;;6.33;4.00;;;;;12.98;84.68;100232.66;5056581;28;45382;-59
2021/12/29 10:12:56;;;;;;;;;4.00;4.00;;;;;13.05;84.63;100234.91;5056647;28;45591;-60
2021/12/29 10:15:28;;;;;;;;;7.00;4.33;;;;;13.10;84.46;100230.09;5056392;28;45505;-59
2021/12/29 10:18:07;;;;;;;;;7.00;4.00;;;;;13.15;84.88;100233.25;5056952;28;45388;-58
2021/12/29 10:20:34;;;;;;;;;7.00;7.00;;;;;13.20;84.72;100239.19;5056971;28;46621;-62
2021/12/29 10:23:00;;;;;;;;;2.67;2.67;;;;;13.22;84.66;100239.91;5056834;28;45570;-60
2021/12/29 10:25:26;;;;;;;;;5.33;3.00;;;;;13.25;84.65;100243.19;5050390;28;46287;-65
2021/12/29 10:27:53;;;;;;;;;2.33;2.33;;;;;13.25;84.86;100247.69;5045365;28;45448;-69
2021/12/29 10:30:25;;;;;;;;;5.67;5.67;;;;;13.29;85.33;100243.84;5048744;28;45498;-67
2021/12/29 10:32:55;;;;;;;;;5.33;3.67;;;;;13.30;85.23;100248.22;5047237;28;45507;-60
2021/12/29 10:35:21;;;;;;;;;4.00;4.00;;;;;13.34;85.77;100249.72;5030972;28;45593;-59
2021/12/29 10:37:47;;;;;;;;;2.00;2.00;;;;;13.40;85.02;100248.38;5043421;28;45652;-62
2021/12/29 10:40:25;;;;;;;;;3.67;3.67;;;;;13.40;85.66;100241.22;5056613;28;45440;-62
2021/12/29 10:42:57;;;;;;;;;3.67;3.67;;;;;13.44;86.29;100237.38;5056342;28;45453;-58
2021/12/29 10:45:39;;;;;;;;;3.00;3.00;;;;;13.47;86.19;100238.97;5046999;28;45521;-62
2021/12/29 10:48:24;;;;;;;;;2.00;2.00;;;;;13.50;86.11;100255.63;5050841;28;45514;-60
2021/12/29 10:51:02;;;;;;;;;3.67;1.67;;;;;13.58;86.35;100261.28;5056587;28;45398;-57
2021/12/29 10:53:30;;;;;;;;;2.00;2.00;;;;;13.61;86.76;100254.84;5054347;28;45799;-59
2021/12/29 10:55:56;;;;;;;;;2.00;2.00;;;;;13.66;86.29;100247.31;5055511;28;46085;-64
2021/12/29 10:58:25;;;;;;;;;1.33;1.33;;;;;13.74;85.86;100254.78;5051276;28;44790;-58
2021/12/29 11:01:08;;;;;;;;;1.67;0.33;;;;;13.79;85.83;100265.97;5046975;28;45327;-55
2021/12/29 11:03:35;;;;;;;;;1.67;1.00;;;;;13.81;86.88;100264.91;5049626;28;45502;-59
2021/12/29 11:06:03;;;;;;;;;0.33;0.33;;;;;13.85;87.12;100271.72;5030894;28;45456;-57
2021/12/29 11:08:58;;;;;;;;;2.00;1.00;;;;;13.87;87.17;100268.94;5028412;28;45469;-56
2021/12/29 11:11:36;;;;;;;;;1.00;1.00;;;;;13.93;86.96;100270.28;5044060;28;45468;-58
2021/12/29 11:14:13;;;;;;;;;0.33;0.33;;;;;13.96;87.68;100270.06;5045287;28;45609;-57
2021/12/29 11:16:41;;;;;;;;;1.00;1.00;;;;;14.00;87.93;100267.03;5037063;28;46696;-61
2021/12/29 11:19:07;;;;;;;;;3.00;1.67;;;;;14.06;87.45;100282.66;5049751;28;45587;-61
2021/12/29 11:21:37;;;;;;;;;1.00;1.00;;;;;14.09;87.56;100269.03;5055343;28;45522;-63
2021/12/29 11:24:20;;;;;;;;;0.00;0.00;;;;;14.15;87.38;100265.88;5052961;28;45700;-59
2021/12/29 11:26:49;;;;;;;;;0.67;0.00;;;;;14.22;86.43;100276.13;5053256;28;45311;-61
2021/12/29 11:29:18;;;;;;;;;1.00;1.00;;;;;14.21;86.90;100264.56;5055223;28;45487;-63
2021/12/29 11:31:58;;;;;;;;;1.00;1.00;;;;;14.30;87.13;100273.69;5054940;28;45554;-62
2021/12/29 11:34:27;;;;;;;;;0.00;0.00;;;;;14.34;87.48;100267.16;5053875;28;45410;-62